Time;durP1;ratioP1;P1;durP2;ratioP2;P2;SDS_P1;SDS_P2;PMS_P1;PMS_P2;Temp;Humidity;BMP_temperature;BMP_pressure;BME280_temperature;BME280_humidity;BME280_pressure;Samples;Min_cycle;Max_cycle;Signal;HPM_P1;HPM_P2
2021/12/23 00:00:05;;;;;;;15.27;10.17;;;;;;;;;;5011434;28;20026;-60
2021/12/23 00:02:31;;;;;;;17.47;10.47;;;;;;;;;;5031846;28;20033;-60
2021/12/23 00:04:56;;;;;;;15.47;10.70;;;;;;;;;;5030218;28;20034;-61
2021/12/23 00:07:21;;;;;;;15.60;10.17;;;;;;;;;;5030898;28;20025;-60
2021/12/23 00:12:15;;;;;;;18.13;9.97;;;;;;;;;;5028259;28;20106;-61
2021/12/23 00:14:40;;;;;;;15.40;10.03;;;;;;;;;;5020006;28;20026;-60
2021/12/23 00:25:27;;;;;;;13.10;8.47;;;;;;;;;;4966507;28;20134;-60
2021/12/23 00:27:53;;;;;;;14.97;9.37;;;;;;;;;;4961587;28;20506;-60
2021/12/23 00:30:18;;;;;;;13.47;8.47;;;;;;;;;;4965827;28;20527;-60
2021/12/23 00:32:43;;;;;;;14.03;9.20;;;;;;;;;;4971059;28;20126;-60
2021/12/23 00:35:09;;;;;;;15.70;9.50;;;;;;;;;;4969583;28;20041;-61
2021/12/23 00:37:42;;;;;;;12.77;9.13;;;;;;;;;;4969999;28;20110;-61
2021/12/23 00:40:08;;;;;;;14.43;9.20;;;;;;;;;;4967457;28;20061;-60
2021/12/23 00:42:34;;;;;;;13.40;8.33;;;;;;;;;;4964145;28;20524;-61
2021/12/23 00:44:59;;;;;;;15.57;9.37;;;;;;;;;;4970923;28;20097;-60
2021/12/23 00:47:24;;;;;;;12.80;9.03;;;;;;;;;;4969467;28;20049;-61
2021/12/23 00:49:49;;;;;;;14.60;9.23;;;;;;;;;;4973964;28;20106;-61
2021/12/23 00:52:17;;;;;;;14.27;8.60;;;;;;;;;;4979435;28;20443;-61
2021/12/23 00:54:43;;;;;;;13.93;8.67;;;;;;;;;;4977748;28;20399;-61
2021/12/23 00:57:08;;;;;;;15.00;9.60;;;;;;;;;;4977103;28;20027;-61
2021/12/23 00:59:35;;;;;;;15.20;9.57;;;;;;;;;;5010405;28;20025;-61
2021/12/23 01:02:03;;;;;;;15.83;9.07;;;;;;;;;;5028682;28;20059;-61
2021/12/23 01:04:28;;;;;;;12.47;8.63;;;;;;;;;;5035946;28;20022;-61
2021/12/23 01:06:53;;;;;;;11.83;7.43;;;;;;;;;;5031495;28;20040;-61
2021/12/23 01:09:18;;;;;;;14.90;8.70;;;;;;;;;;5024057;28;20452;-60
2021/12/23 01:11:44;;;;;;;14.87;8.43;;;;;;;;;;5031389;28;20083;-61
2021/12/23 01:17:11;;;;;;;13.50;8.33;;;;;;;;;;5031182;28;20049;-61
2021/12/23 01:19:39;;;;;;;12.07;7.97;;;;;;;;;;5026997;28;20535;-62
2021/12/23 01:22:05;;;;;;;13.00;8.20;;;;;;;;;;5030429;28;20025;-62
2021/12/23 01:24:33;;;;;;;11.93;7.77;;;;;;;;;;5030902;28;20048;-62
2021/12/23 01:26:58;;;;;;;11.33;7.67;;;;;;;;;;5033884;28;20449;-60
2021/12/23 01:29:23;;;;;;;10.90;7.60;;;;;;;;;;5026882;28;20454;-60
2021/12/23 01:31:49;;;;;;;14.37;8.37;;;;;;;;;;5029230;28;20029;-61
2021/12/23 01:34:14;;;;;;;13.53;8.10;;;;;;;;;;5030776;28;20030;-60
2021/12/23 01:36:39;;;;;;;11.97;7.40;;;;;;;;;;5032991;28;20124;-60
2021/12/23 01:39:04;;;;;;;13.47;8.07;;;;;;;;;;5022820;28;20056;-60
2021/12/23 01:41:29;;;;;;;12.37;7.90;;;;;;;;;;5026381;28;20109;-60
2021/12/23 01:43:55;;;;;;;11.70;6.93;;;;;;;;;;5030273;28;20030;-60
2021/12/23 01:46:22;;;;;;;12.63;7.60;;;;;;;;;;5030877;28;20551;-60
2021/12/23 01:48:47;;;;;;;12.83;7.37;;;;;;;;;;5028411;28;20017;-60
2021/12/23 01:51:13;;;;;;;9.83;7.23;;;;;;;;;;5031830;28;20186;-60
2021/12/23 01:53:38;;;;;;;9.03;6.77;;;;;;;;;;5015053;28;20026;-61
2021/12/23 01:56:04;;;;;;;12.07;7.43;;;;;;;;;;5028007;28;20501;-61
2021/12/23 01:58:29;;;;;;;11.80;7.23;;;;;;;;;;5021667;28;20083;-61
2021/12/23 02:00:54;;;;;;;9.30;6.90;;;;;;;;;;5018065;28;20026;-61
2021/12/23 02:03:20;;;;;;;10.57;6.80;;;;;;;;;;5006768;28;20091;-61
2021/12/23 02:05:45;;;;;;;13.10;7.50;;;;;;;;;;5030278;28;20112;-61
2021/12/23 02:08:11;;;;;;;10.10;7.40;;;;;;;;;;5026449;28;20370;-61
2021/12/23 02:10:36;;;;;;;10.27;7.50;;;;;;;;;;5025388;28;20148;-61
2021/12/23 02:13:02;;;;;;;10.53;6.90;;;;;;;;;;5001913;28;20022;-61
2021/12/23 02:15:27;;;;;;;12.60;7.63;;;;;;;;;;5028217;28;20134;-61
2021/12/23 02:17:53;;;;;;;12.30;7.83;;;;;;;;;;5028564;28;20197;-61
2021/12/23 02:20:20;;;;;;;10.30;6.37;;;;;;;;;;5028670;28;20124;-61
2021/12/23 02:22:45;;;;;;;10.13;6.13;;;;;;;;;;5036934;28;20481;-61
2021/12/23 02:25:11;;;;;;;11.23;6.43;;;;;;;;;;5032333;28;20041;-61
2021/12/23 02:27:37;;;;;;;11.93;7.03;;;;;;;;;;5031851;28;20017;-61
2021/12/23 02:30:04;;;;;;;9.57;6.00;;;;;;;;;;5032732;28;20432;-61
2021/12/23 02:32:29;;;;;;;10.13;6.57;;;;;;;;;;5022777;28;20018;-61
2021/12/23 02:34:54;;;;;;;10.03;6.53;;;;;;;;;;5015562;28;20029;-61
2021/12/23 02:37:20;;;;;;;10.90;6.60;;;;;;;;;;5033187;28;20029;-61
2021/12/23 02:39:45;;;;;;;10.70;6.30;;;;;;;;;;5026290;28;20045;-61
2021/12/23 02:42:10;;;;;;;10.77;7.40;;;;;;;;;;5030439;28;20068;-61
2021/12/23 02:44:36;;;;;;;9.50;6.13;;;;;;;;;;5032921;28;20029;-61
2021/12/23 02:47:01;;;;;;;10.87;6.97;;;;;;;;;;5034406;28;20018;-61
2021/12/23 02:49:26;;;;;;;9.53;6.40;;;;;;;;;;5024547;28;20477;-61
2021/12/23 02:51:52;;;;;;;9.77;6.40;;;;;;;;;;5033179;28;20029;-61
2021/12/23 02:54:17;;;;;;;11.13;6.53;;;;;;;;;;5029754;28;20021;-61
2021/12/23 02:56:43;;;;;;;11.13;6.10;;;;;;;;;;5038673;28;20030;-61
2021/12/23 02:59:08;;;;;;;10.13;6.20;;;;;;;;;;5033582;28;20124;-61
2021/12/23 03:01:34;;;;;;;9.43;5.87;;;;;;;;;;5021384;28;20052;-61
2021/12/23 03:03:59;;;;;;;11.57;6.97;;;;;;;;;;5016558;28;20037;-61
2021/12/23 03:06:25;;;;;;;10.83;5.87;;;;;;;;;;5032041;28;20025;-60
2021/12/23 03:08:55;;;;;;;9.90;6.10;;;;;;;;;;5028274;28;20029;-60
2021/12/23 03:11:21;;;;;;;11.07;6.57;;;;;;;;;;5037127;28;20579;-60
2021/12/23 03:13:47;;;;;;;10.93;6.17;;;;;;;;;;5040802;28;20025;-60
2021/12/23 03:16:13;;;;;;;10.20;6.27;;;;;;;;;;5032802;28;20033;-60
2021/12/23 03:18:39;;;;;;;11.63;6.80;;;;;;;;;;5034902;28;20052;-61
2021/12/23 03:21:04;;;;;;;10.47;6.23;;;;;;;;;;5031192;28;20060;-61
2021/12/23 03:23:30;;;;;;;9.50;5.80;;;;;;;;;;5033241;28;20193;-61
2021/12/23 03:25:55;;;;;;;8.97;6.63;;;;;;;;;;5018998;28;20026;-61
2021/12/23 03:28:20;;;;;;;11.17;6.47;;;;;;;;;;5031246;28;20536;-61
2021/12/23 03:30:46;;;;;;;9.60;6.63;;;;;;;;;;5027111;28;20033;-61
2021/12/23 03:33:11;;;;;;;11.37;6.50;;;;;;;;;;5015857;28;20026;-61
2021/12/23 03:35:37;;;;;;;9.83;6.23;;;;;;;;;;5025613;28;20025;-61
2021/12/23 03:38:03;;;;;;;10.20;6.00;;;;;;;;;;5028861;28;20030;-61
2021/12/23 03:40:28;;;;;;;9.40;6.23;;;;;;;;;;5026540;28;20442;-61
2021/12/23 03:42:53;;;;;;;9.63;6.60;;;;;;;;;;5030651;28;20037;-61
2021/12/23 03:45:19;;;;;;;9.60;5.83;;;;;;;;;;5045844;28;20041;-61
2021/12/23 03:47:48;;;;;;;11.13;6.10;;;;;;;;;;5048138;28;20021;-61
2021/12/23 03:50:15;;;;;;;8.53;5.60;;;;;;;;;;5031611;28;20030;-61
2021/12/23 03:52:40;;;;;;;8.47;5.70;;;;;;;;;;5010208;28;20048;-61
2021/12/23 03:55:05;;;;;;;10.37;5.97;;;;;;;;;;5026590;28;20061;-61
2021/12/23 03:57:30;;;;;;;7.03;4.80;;;;;;;;;;5030097;28;21218;-61
2021/12/23 03:59:56;;;;;;;9.40;5.53;;;;;;;;;;5032458;28;20037;-61
2021/12/23 04:02:21;;;;;;;9.97;5.67;;;;;;;;;;5030006;28;20025;-60
2021/12/23 04:04:46;;;;;;;10.23;6.23;;;;;;;;;;5032780;28;20040;-61
2021/12/23 04:07:11;;;;;;;9.70;5.60;;;;;;;;;;5025118;28;20025;-60
2021/12/23 04:09:36;;;;;;;7.93;6.03;;;;;;;;;;5025809;28;20017;-60
2021/12/23 04:12:02;;;;;;;8.70;5.53;;;;;;;;;;5031349;28;20017;-60
2021/12/23 04:14:27;;;;;;;8.13;5.53;;;;;;;;;;5034547;28;20021;-60
2021/12/23 04:16:52;;;;;;;6.97;5.33;;;;;;;;;;5039836;28;20030;-61
2021/12/23 04:19:17;;;;;;;10.20;5.93;;;;;;;;;;5028986;28;20060;-61
2021/12/23 04:21:43;;;;;;;8.43;5.07;;;;;;;;;;5039859;28;20152;-60
2021/12/23 04:24:08;;;;;;;11.33;6.80;;;;;;;;;;5034147;28;20379;-61
2021/12/23 04:26:34;;;;;;;9.47;5.37;;;;;;;;;;5031652;28;20482;-61
2021/12/23 04:29:00;;;;;;;8.00;5.70;;;;;;;;;;5022077;28;20021;-61
2021/12/23 04:31:25;;;;;;;9.20;5.30;;;;;;;;;;5026727;28;20470;-61
2021/12/23 04:33:52;;;;;;;7.90;5.10;;;;;;;;;;5030094;28;20034;-61
2021/12/23 04:36:18;;;;;;;8.83;5.20;;;;;;;;;;5029609;28;20155;-61
2021/12/23 04:38:44;;;;;;;6.87;4.87;;;;;;;;;;5007714;28;20542;-61
2021/12/23 04:41:10;;;;;;;9.47;5.77;;;;;;;;;;5032486;28;20124;-61
2021/12/23 04:43:35;;;;;;;8.57;5.20;;;;;;;;;;5029960;28;20104;-62
2021/12/23 04:46:01;;;;;;;8.40;4.90;;;;;;;;;;5030386;28;20029;-61
2021/12/23 04:48:26;;;;;;;7.43;4.70;;;;;;;;;;5008949;28;20022;-61
2021/12/23 04:50:52;;;;;;;8.30;4.90;;;;;;;;;;5031245;28;20164;-61
2021/12/23 04:53:17;;;;;;;6.53;4.73;;;;;;;;;;5035189;28;20539;-61
2021/12/23 04:55:42;;;;;;;7.43;5.07;;;;;;;;;;5040630;28;20034;-61
2021/12/23 04:58:08;;;;;;;11.00;4.53;;;;;;;;;;5031398;28;20029;-62
2021/12/23 05:00:33;;;;;;;8.53;5.00;;;;;;;;;;5028966;28;20114;-62
2021/12/23 05:02:58;;;;;;;8.43;5.20;;;;;;;;;;5032037;28;20477;-61
2021/12/23 05:05:23;;;;;;;8.33;5.23;;;;;;;;;;5029271;28;20029;-60
2021/12/23 05:07:49;;;;;;;8.73;4.63;;;;;;;;;;5028979;28;20026;-60
2021/12/23 05:10:14;;;;;;;6.87;4.67;;;;;;;;;;5023287;28;20124;-60
2021/12/23 05:12:44;;;;;;;6.80;4.17;;;;;;;;;;5031693;28;20030;-60
2021/12/23 05:15:14;;;;;;;6.70;4.30;;;;;;;;;;5040283;28;20121;-60
2021/12/23 05:17:40;;;;;;;7.63;4.60;;;;;;;;;;5029856;28;20033;-60
2021/12/23 05:20:06;;;;;;;7.57;4.17;;;;;;;;;;5028392;28;20036;-61
2021/12/23 05:22:31;;;;;;;6.33;4.07;;;;;;;;;;5031749;28;20092;-61
2021/12/23 05:24:56;;;;;;;7.33;4.50;;;;;;;;;;5011218;28;20037;-61
2021/12/23 05:27:21;;;;;;;6.47;4.00;;;;;;;;;;5043303;28;20072;-61
2021/12/23 05:29:46;;;;;;;7.03;4.17;;;;;;;;;;5028704;28;20488;-61
2021/12/23 05:32:12;;;;;;;7.83;3.87;;;;;;;;;;5018292;28;20423;-61
2021/12/23 05:34:37;;;;;;;7.60;3.90;;;;;;;;;;5027179;28;20090;-61
2021/12/23 05:37:02;;;;;;;5.53;3.40;;;;;;;;;;5013607;28;20064;-61
2021/12/23 05:39:27;;;;;;;5.53;3.50;;;;;;;;;;5022603;28;20053;-60
2021/12/23 05:41:53;;;;;;;7.07;4.00;;;;;;;;;;5026120;28;20040;-60
2021/12/23 05:44:18;;;;;;;5.53;3.53;;;;;;;;;;5037464;28;20155;-61
2021/12/23 05:46:43;;;;;;;5.57;4.00;;;;;;;;;;5051702;28;20397;-60
2021/12/23 05:49:08;;;;;;;5.37;3.90;;;;;;;;;;5036357;28;20433;-61
2021/12/23 05:51:34;;;;;;;5.33;3.53;;;;;;;;;;5028872;28;20018;-61
2021/12/23 05:53:59;;;;;;;7.33;4.97;;;;;;;;;;5028056;28;20060;-61
2021/12/23 05:56:25;;;;;;;8.20;5.20;;;;;;;;;;5026284;28;20118;-61
2021/12/23 05:58:50;;;;;;;9.40;5.80;;;;;;;;;;5039168;28;20113;-61
2021/12/23 06:01:15;;;;;;;7.63;5.03;;;;;;;;;;5033161;28;20436;-61
2021/12/23 06:03:41;;;;;;;8.03;5.37;;;;;;;;;;5017321;28;20033;-62
2021/12/23 06:06:07;;;;;;;8.43;5.10;;;;;;;;;;5025917;28;20374;-61
2021/12/23 06:08:32;;;;;;;6.53;3.73;;;;;;;;;;5021122;28;20021;-60
2021/12/23 06:10:57;;;;;;;8.00;4.13;;;;;;;;;;5024087;28;20041;-62
2021/12/23 06:13:22;;;;;;;4.93;3.60;;;;;;;;;;5024216;28;20075;-61
2021/12/23 06:15:47;;;;;;;4.87;3.20;;;;;;;;;;5027832;28;20022;-60
2021/12/23 06:18:13;;;;;;;6.23;3.93;;;;;;;;;;5026638;28;20037;-61
2021/12/23 06:20:38;;;;;;;6.47;3.83;;;;;;;;;;5027776;28;20033;-62
2021/12/23 06:23:04;;;;;;;6.97;4.10;;;;;;;;;;5010936;28;20033;-61
2021/12/23 06:25:29;;;;;;;4.97;3.63;;;;;;;;;;5009056;28;20060;-61
2021/12/23 06:27:54;;;;;;;6.97;3.37;;;;;;;;;;5026033;28;20061;-62
2021/12/23 06:30:21;;;;;;;5.80;3.30;;;;;;;;;;5023010;28;20033;-61
2021/12/23 06:32:47;;;;;;;5.33;3.50;;;;;;;;;;5022390;28;20029;-61
2021/12/23 06:35:12;;;;;;;6.33;3.77;;;;;;;;;;5027506;28;20037;-61
2021/12/23 06:37:38;;;;;;;6.70;3.80;;;;;;;;;;5034481;28;20027;-61
2021/12/23 06:40:04;;;;;;;6.17;3.83;;;;;;;;;;5010381;28;20056;-61
2021/12/23 06:42:29;;;;;;;5.77;3.63;;;;;;;;;;5034067;28;20119;-61
2021/12/23 06:44:55;;;;;;;4.67;3.60;;;;;;;;;;5031664;28;20136;-61
2021/12/23 06:47:20;;;;;;;5.67;3.50;;;;;;;;;;5032903;28;20103;-61
2021/12/23 06:49:47;;;;;;;5.87;3.70;;;;;;;;;;5028002;28;20026;-61
2021/12/23 06:52:12;;;;;;;6.07;3.47;;;;;;;;;;5041201;28;20441;-62
2021/12/23 06:54:42;;;;;;;6.07;3.37;;;;;;;;;;5033724;28;20025;-62
2021/12/23 06:57:07;;;;;;;6.70;3.33;;;;;;;;;;5033039;28;20079;-62
2021/12/23 06:59:32;;;;;;;6.03;3.20;;;;;;;;;;5034087;28;20520;-61
2021/12/23 07:01:58;;;;;;;5.53;3.20;;;;;;;;;;4988808;28;20080;-60
2021/12/23 07:04:28;;;;;;;6.07;3.80;;;;;;;;;;5029787;28;20021;-60
2021/12/23 07:07:07;;;;;;;5.17;3.50;;;;;;;;;;5034326;28;20470;-62
2021/12/23 07:09:32;;;;;;;6.47;4.03;;;;;;;;;;5031443;28;20418;-61
2021/12/23 07:11:58;;;;;;;5.97;3.87;;;;;;;;;;5031369;28;20470;-61
2021/12/23 07:14:23;;;;;;;5.60;3.67;;;;;;;;;;5040829;28;20385;-61
2021/12/23 07:16:48;;;;;;;7.00;3.23;;;;;;;;;;5014743;28;20485;-61
2021/12/23 07:19:13;;;;;;;6.93;3.80;;;;;;;;;;5042005;28;20030;-61
2021/12/23 07:21:39;;;;;;;5.27;3.67;;;;;;;;;;5033665;28;20025;-61
2021/12/23 07:24:04;;;;;;;5.93;3.37;;;;;;;;;;5033877;28;20017;-61
2021/12/23 07:26:29;;;;;;;5.00;3.47;;;;;;;;;;5018651;28;20025;-61
2021/12/23 07:28:54;;;;;;;6.73;3.80;;;;;;;;;;5039638;28;20056;-61
2021/12/23 07:31:20;;;;;;;6.33;3.20;;;;;;;;;;5015585;28;20026;-61
2021/12/23 07:33:45;;;;;;;6.67;3.67;;;;;;;;;;5030869;28;20030;-61
2021/12/23 07:36:10;;;;;;;5.90;4.00;;;;;;;;;;5039789;28;20034;-61
2021/12/23 07:38:36;;;;;;;5.87;3.80;;;;;;;;;;5012834;28;20115;-61
2021/12/23 07:41:02;;;;;;;6.50;3.50;;;;;;;;;;5029270;28;20076;-61
2021/12/23 07:46:02;;;;;;;4.47;2.47;;;;;;;;;;5033405;28;20120;-61
2021/12/23 07:48:27;;;;;;;10.10;4.73;;;;;;;;;;5033669;28;20359;-61
2021/12/23 07:50:53;;;;;;;8.27;4.20;;;;;;;;;;5035834;28;20025;-60
2021/12/23 07:53:19;;;;;;;6.17;4.57;;;;;;;;;;5033567;28;20018;-61
2021/12/23 07:55:44;;;;;;;7.00;4.17;;;;;;;;;;5032451;28;20026;-60
2021/12/23 07:58:09;;;;;;;6.53;4.37;;;;;;;;;;5039393;28;20029;-60
2021/12/23 08:00:35;;;;;;;8.30;3.97;;;;;;;;;;5032648;28;20033;-61
2021/12/23 08:03:01;;;;;;;5.63;3.40;;;;;;;;;;5033152;28;20159;-61
2021/12/23 08:05:26;;;;;;;4.80;3.40;;;;;;;;;;5031797;28;20036;-61
2021/12/23 08:07:53;;;;;;;7.33;4.13;;;;;;;;;;5032505;28;20377;-61
2021/12/23 08:10:19;;;;;;;7.33;4.83;;;;;;;;;;5029470;28;20033;-61
2021/12/23 08:12:44;;;;;;;8.30;4.53;;;;;;;;;;5032330;28;20095;-62
2021/12/23 08:15:09;;;;;;;7.77;4.23;;;;;;;;;;5014260;28;20064;-61
2021/12/23 08:17:35;;;;;;;4.80;3.27;;;;;;;;;;5031693;28;20507;-61
2021/12/23 08:20:00;;;;;;;5.83;3.40;;;;;;;;;;5013398;28;20370;-61
2021/12/23 08:22:25;;;;;;;6.00;3.97;;;;;;;;;;5033133;28;20494;-61
2021/12/23 08:24:51;;;;;;;6.80;4.33;;;;;;;;;;5034207;28;20096;-61
2021/12/23 08:27:16;;;;;;;7.07;3.83;;;;;;;;;;5036572;28;20037;-61
2021/12/23 08:29:41;;;;;;;6.53;4.30;;;;;;;;;;5014175;28;20018;-61
2021/12/23 08:32:07;;;;;;;7.93;3.50;;;;;;;;;;5031136;28;20034;-60
2021/12/23 08:34:34;;;;;;;6.73;4.47;;;;;;;;;;5013577;28;20029;-61
2021/12/23 08:37:00;;;;;;;7.00;4.27;;;;;;;;;;5015605;28;20059;-61
2021/12/23 08:39:26;;;;;;;7.10;3.93;;;;;;;;;;5027534;28;20077;-59
2021/12/23 08:41:51;;;;;;;8.23;4.37;;;;;;;;;;5033259;28;20394;-61
2021/12/23 08:44:16;;;;;;;8.13;4.00;;;;;;;;;;5034779;28;20397;-61
2021/12/23 08:46:42;;;;;;;6.47;4.33;;;;;;;;;;5032653;28;20036;-61
2021/12/23 08:49:16;;;;;;;8.40;4.40;;;;;;;;;;5012892;28;20025;-61
2021/12/23 08:51:43;;;;;;;9.33;4.10;;;;;;;;;;5030688;28;20017;-60
2021/12/23 08:54:09;;;;;;;5.40;3.53;;;;;;;;;;5031310;28;20032;-61
2021/12/23 08:56:35;;;;;;;9.67;4.10;;;;;;;;;;5037869;28;20128;-61
2021/12/23 08:59:00;;;;;;;5.53;4.07;;;;;;;;;;5035917;28;20537;-61
2021/12/23 09:01:25;;;;;;;5.93;3.80;;;;;;;;;;5029524;28;20135;-61
2021/12/23 09:03:51;;;;;;;5.63;3.70;;;;;;;;;;5031158;28;20026;-61
2021/12/23 09:06:16;;;;;;;5.13;3.67;;;;;;;;;;5029787;28;20079;-61
2021/12/23 09:08:41;;;;;;;7.27;3.90;;;;;;;;;;5027916;28;20073;-65
2021/12/23 09:11:07;;;;;;;8.73;4.00;;;;;;;;;;5009396;28;20033;-62
2021/12/23 09:13:32;;;;;;;9.03;4.30;;;;;;;;;;5029842;28;20060;-62
2021/12/23 09:15:58;;;;;;;9.80;3.90;;;;;;;;;;5031280;28;20116;-62
2021/12/23 09:18:24;;;;;;;6.87;4.20;;;;;;;;;;5039319;28;20531;-62
2021/12/23 09:20:49;;;;;;;7.13;4.50;;;;;;;;;;5025234;28;20033;-62
2021/12/23 09:23:15;;;;;;;8.67;5.17;;;;;;;;;;5030744;28;20469;-62
2021/12/23 09:25:41;;;;;;;9.60;6.00;;;;;;;;;;5029563;28;20055;-63
2021/12/23 09:28:21;;;;;;;8.87;5.60;;;;;;;;;;5029674;28;20026;-62
2021/12/23 09:33:30;;;;;;;10.60;5.90;;;;;;;;;;5031081;28;20051;-62
2021/12/23 09:35:56;;;;;;;9.57;6.30;;;;;;;;;;5029781;28;20041;-63
2021/12/23 09:38:27;;;;;;;9.43;5.67;;;;;;;;;;5031122;28;20079;-63
2021/12/23 09:40:53;;;;;;;8.83;5.00;;;;;;;;;;5026272;28;20527;-62
2021/12/23 09:43:20;;;;;;;6.53;4.43;;;;;;;;;;5031180;28;20033;-62
2021/12/23 09:45:46;;;;;;;7.93;4.70;;;;;;;;;;5034754;28;20075;-62
2021/12/23 09:48:12;;;;;;;7.37;5.60;;;;;;;;;;5034841;28;20033;-62
2021/12/23 09:50:39;;;;;;;7.53;5.93;;;;;;;;;;5031172;28;20033;-62
2021/12/23 09:53:05;;;;;;;6.77;5.30;;;;;;;;;;5034377;28;20051;-62
2021/12/23 09:55:31;;;;;;;9.73;5.37;;;;;;;;;;5026633;28;20121;-62
2021/12/23 09:57:58;;;;;;;10.03;6.10;;;;;;;;;;5028245;28;20029;-62
2021/12/23 10:00:26;;;;;;;8.93;5.27;;;;;;;;;;5029542;28;20470;-62
2021/12/23 10:02:51;;;;;;;8.83;5.67;;;;;;;;;;5029719;28;20122;-62
2021/12/23 10:05:18;;;;;;;8.10;5.63;;;;;;;;;;5026897;28;20462;-61
2021/12/23 10:07:45;;;;;;;9.83;5.73;;;;;;;;;;5030314;28;20036;-62
2021/12/23 10:10:24;;;;;;;10.13;5.30;;;;;;;;;;5026194;28;20025;-62
2021/12/23 10:28:51;;;;;;;9.07;4.30;;;;;;;;;;4969557;28;20077;-62
2021/12/23 10:38:21;;;;;;;10.53;4.17;;;;;;;;;;4976815;28;20118;-63
2021/12/23 10:40:49;;;;;;;7.73;3.90;;;;;;;;;;4962423;28;20101;-64
2021/12/23 10:43:29;;;;;;;6.93;4.37;;;;;;;;;;4969754;28;20031;-67
2021/12/23 10:45:56;;;;;;;6.93;3.80;;;;;;;;;;4969361;28;20034;-67
2021/12/23 10:48:24;;;;;;;5.27;3.90;;;;;;;;;;4971693;28;20042;-64
2021/12/23 10:50:55;;;;;;;6.50;4.47;;;;;;;;;;4971431;28;20138;-60
2021/12/23 10:53:58;;;;;;;7.20;3.97;;;;;;;;;;4957920;28;20500;-64
2021/12/23 10:59:22;;;;;;;7.30;4.78;;;;;;;;;;4973335;28;20538;-66
2021/12/23 11:02:10;;;;;;;8.93;4.83;;;;;;;;;;5022275;28;20219;-66
2021/12/23 11:05:00;;;;;;;8.30;5.47;;;;;;;;;;5033651;28;20459;-66
2021/12/23 11:07:37;;;;;;;9.70;4.90;;;;;;;;;;5033453;28;20068;-68
2021/12/23 11:10:21;;;;;;;10.40;5.20;;;;;;;;;;5027471;28;20135;-65
2021/12/23 11:37:47;;;;;;;9.43;6.65;;;;;;;;;;5033595;28;20414;-62
2021/12/23 11:40:27;;;;;;;9.98;6.40;;;;;;;;;;5020831;28;20114;-62
2021/12/23 11:43:25;;;;;;;10.75;6.40;;;;;;;;;;5032773;28;20059;-62
2021/12/23 11:45:50;;;;;;;11.32;6.95;;;;;;;;;;5032605;28;20059;-62
2021/12/23 11:48:15;;;;;;;8.75;6.68;;;;;;;;;;5024113;28;20021;-62
2021/12/23 11:53:27;;;;;;;8.77;6.82;;;;;;;;;;4991971;28;20474;-62
2021/12/23 11:55:52;;;;;;;9.05;6.50;;;;;;;;;;5012484;28;20036;-62
2021/12/23 11:58:21;;;;;;;9.20;7.20;;;;;;;;;;5024361;28;20111;-62
2021/12/23 12:00:59;;;;;;;9.85;7.60;;;;;;;;;;5015101;28;20026;-62
2021/12/23 12:03:24;;;;;;;9.65;7.40;;;;;;;;;;5032682;28;20044;-62
2021/12/23 12:05:51;;;;;;;13.20;7.80;;;;;;;;;;5032487;28;20474;-62
2021/12/23 12:08:23;;;;;;;13.55;8.10;;;;;;;;;;5015035;28;20022;-62
2021/12/23 12:10:48;;;;;;;12.80;8.48;;;;;;;;;;5025795;28;20025;-62
2021/12/23 12:13:16;;;;;;;10.30;7.78;;;;;;;;;;5030564;28;20185;-62
2021/12/23 12:15:47;;;;;;;11.80;8.15;;;;;;;;;;5032899;28;20120;-63
2021/12/23 12:18:14;;;;;;;12.98;8.32;;;;;;;;;;5032262;28;20103;-63
2021/12/23 12:20:53;;;;;;;13.40;8.68;;;;;;;;;;5016328;28;20075;-62
2021/12/23 12:23:23;;;;;;;12.15;8.60;;;;;;;;;;5032410;28;20030;-62
2021/12/23 12:25:53;;;;;;;11.93;8.57;;;;;;;;;;5031926;28;20549;-62
2021/12/23 12:28:21;;;;;;;13.55;8.75;;;;;;;;;;5030412;28;20013;-62
2021/12/23 12:30:51;;;;;;;11.10;8.55;;;;;;;;;;5031128;28;20415;-63
2021/12/23 12:33:25;;;;;;;13.60;8.40;;;;;;;;;;5031307;28;20109;-62
2021/12/23 12:35:50;;;;;;;13.20;8.63;;;;;;;;;;5014284;28;20116;-62
2021/12/23 12:38:20;;;;;;;13.20;9.38;;;;;;;;;;5031919;28;20108;-62
2021/12/23 12:41:00;;;;;;;14.65;10.52;;;;;;;;;;5020020;28;20328;-62
2021/12/23 12:43:31;;;;;;;11.27;8.75;;;;;;;;;;5031277;28;20032;-62
2021/12/23 12:45:56;;;;;;;11.82;8.73;;;;;;;;;;5030238;28;20572;-62
2021/12/23 12:48:21;;;;;;;12.38;8.40;;;;;;;;;;5031768;28;20060;-62
2021/12/23 12:50:50;;;;;;;12.73;8.23;;;;;;;;;;5014041;28;20433;-61
2021/12/23 12:53:18;;;;;;;13.35;9.02;;;;;;;;;;5031635;28;20029;-63
2021/12/23 12:55:48;;;;;;;11.90;8.15;;;;;;;;;;5030984;28;20017;-63
2021/12/23 12:58:13;;;;;;;14.10;7.38;;;;;;;;;;5029432;28;20029;-63
2021/12/23 13:00:40;;;;;;;10.50;7.68;;;;;;;;;;5030336;28;20394;-63
2021/12/23 13:03:05;;;;;;;9.55;6.85;;;;;;;;;;5012216;28;20111;-63
2021/12/23 13:05:33;;;;;;;13.48;7.84;;;;;;;;;;5031600;28;20052;-63
2021/12/23 13:08:05;;;;;;;10.95;6.90;;;;;;;;;;5031162;28;20104;-64
2021/12/23 13:10:32;;;;;;;10.88;7.70;;;;;;;;;;5008710;28;20538;-64
2021/12/23 13:13:00;;;;;;;11.57;7.00;;;;;;;;;;5030904;28;20024;-64
2021/12/23 13:15:28;;;;;;;10.23;7.40;;;;;;;;;;5031141;28;20033;-62
2021/12/23 13:17:59;;;;;;;11.50;7.07;;;;;;;;;;5029737;28;20032;-63
2021/12/23 13:20:32;;;;;;;10.32;7.03;;;;;;;;;;5031787;28;20029;-62
2021/12/23 13:23:02;;;;;;;10.90;7.10;;;;;;;;;;5031494;28;20021;-65
2021/12/23 13:25:28;;;;;;;9.52;6.63;;;;;;;;;;5031035;28;20113;-63
2021/12/23 13:27:53;;;;;;;11.43;6.85;;;;;;;;;;5030800;28;20044;-63
2021/12/23 13:30:18;;;;;;;11.18;7.05;;;;;;;;;;5029760;28;20083;-63
2021/12/23 13:32:55;;;;;;;10.35;6.07;;;;;;;;;;5027733;28;20398;-63
2021/12/23 13:35:21;;;;;;;9.52;7.03;;;;;;;;;;5029464;28;20064;-63
2021/12/23 13:37:46;;;;;;;9.68;6.00;;;;;;;;;;5033940;28;20060;-64
2021/12/23 13:40:12;;;;;;;9.48;6.57;;;;;;;;;;5027827;28;20049;-64
2021/12/23 13:42:38;;;;;;;9.57;6.82;;;;;;;;;;5030844;28;20470;-63
2021/12/23 13:45:04;;;;;;;8.90;6.45;;;;;;;;;;5031352;28;20022;-64
2021/12/23 13:47:29;;;;;;;9.82;6.40;;;;;;;;;;5030366;28;20474;-63
2021/12/23 13:49:56;;;;;;;9.50;6.82;;;;;;;;;;5029426;28;20013;-64
2021/12/23 13:52:31;;;;;;;9.60;6.75;;;;;;;;;;5029309;28;20078;-64
2021/12/23 13:55:01;;;;;;;8.95;6.45;;;;;;;;;;5015559;28;20061;-64
2021/12/23 13:57:27;;;;;;;9.05;6.00;;;;;;;;;;5018488;28;20044;-66
2021/12/23 13:59:53;;;;;;;8.38;5.93;;;;;;;;;;5014280;28;20116;-65
2021/12/23 14:02:19;;;;;;;7.32;5.90;;;;;;;;;;5016096;28;20109;-65
2021/12/23 14:04:46;;;;;;;10.18;6.70;;;;;;;;;;5030388;28;20034;-64
2021/12/23 14:07:19;;;;;;;10.15;6.43;;;;;;;;;;5027829;28;20112;-65
2021/12/23 14:09:47;;;;;;;9.35;6.03;;;;;;;;;;5021298;28;20045;-64
2021/12/23 14:12:14;;;;;;;9.88;6.60;;;;;;;;;;5030339;28;20028;-64
2021/12/23 14:14:54;;;;;;;11.43;6.47;;;;;;;;;;5030298;28;20032;-65
2021/12/23 14:17:27;;;;;;;11.25;6.43;;;;;;;;;;5030662;28;20052;-65
2021/12/23 14:23:11;;;;;;;9.97;6.77;;;;;;;;;;5030970;28;20087;-65
2021/12/23 14:25:29;;;;;;;8.90;5.90;;;;;;;;;;5032291;28;20044;-63
2021/12/23 14:27:54;;;;;;;9.80;6.53;;;;;;;;;;5034294;28;20021;-63
2021/12/23 14:30:32;;;;;;;7.13;5.53;;;;;;;;;;5034562;28;20026;-63
2021/12/23 14:33:11;;;;;;;8.10;6.30;;;;;;;;;;5032501;28;20013;-63
2021/12/23 14:35:37;;;;;;;7.90;6.10;;;;;;;;;;5015993;28;20440;-63
2021/12/23 14:38:02;;;;;;;9.00;6.33;;;;;;;;;;5033900;28;20047;-63
2021/12/23 14:40:27;;;;;;;9.43;6.30;;;;;;;;;;5026865;28;20049;-64
2021/12/23 14:43:00;;;;;;;8.93;6.20;;;;;;;;;;5033464;28;20028;-63
2021/12/23 14:45:25;;;;;;;9.30;6.80;;;;;;;;;;5033600;28;20061;-63
2021/12/23 14:47:57;;;;;;;10.60;7.20;;;;;;;;;;5034677;28;20045;-64
2021/12/23 14:50:25;;;;;;;8.07;6.30;;;;;;;;;;5032133;28;20155;-64
2021/12/23 14:52:53;;;;;;;10.67;7.47;;;;;;;;;;5032394;28;20051;-64
2021/12/23 14:55:36;;;;;;;9.87;7.10;;;;;;;;;;5032966;28;20056;-63
2021/12/23 14:58:03;;;;;;;10.37;6.80;;;;;;;;;;5032303;28;20120;-63
2021/12/23 15:00:33;;;;;;;9.70;7.13;;;;;;;;;;5034118;28;20013;-63
2021/12/23 15:03:03;;;;;;;10.53;7.17;;;;;;;;;;5014349;28;20079;-61
2021/12/23 15:05:28;;;;;;;10.43;7.30;;;;;;;;;;5031203;28;20025;-62
2021/12/23 15:08:04;;;;;;;11.07;7.60;;;;;;;;;;5033817;28;20028;-63
2021/12/23 15:10:32;;;;;;;9.03;7.23;;;;;;;;;;5030663;28;20497;-63
2021/12/23 15:12:59;;;;;;;10.10;7.73;;;;;;;;;;5031022;28;20009;-62
2021/12/23 15:15:28;;;;;;;10.20;7.47;;;;;;;;;;5027864;28;20025;-63
2021/12/23 15:17:59;;;;;;;9.63;5.83;;;;;;;;;;5038608;28;20031;-62
2021/12/23 15:20:29;;;;;;;11.73;8.10;;;;;;;;;;5028497;28;20612;-63
2021/12/23 15:22:56;;;;;;;11.63;8.27;;;;;;;;;;5024387;28;20139;-63
2021/12/23 15:25:31;;;;;;;10.47;7.07;;;;;;;;;;5026339;28;20026;-63
2021/12/23 15:27:56;;;;;;;10.15;6.55;;;;;;;;;;5038253;28;20053;-64
2021/12/23 15:30:23;;;;;;;14.53;9.23;;;;;;;;;;5031500;28;20049;-64
2021/12/23 15:32:48;;;;;;;13.33;8.63;;;;;;;;;;5028605;28;20445;-64
2021/12/23 15:35:17;;;;;;;12.83;8.93;;;;;;;;;;5027110;28;20104;-64
2021/12/23 15:37:45;;;;;;;12.13;8.73;;;;;;;;;;5033143;28;20449;-64
2021/12/23 15:40:11;;;;;;;10.27;7.47;;;;;;;;;;5026107;28;20636;-63
2021/12/23 15:42:37;;;;;;;14.00;8.87;;;;;;;;;;5014214;28;20052;-63
2021/12/23 15:45:03;;;;;;;13.07;8.53;;;;;;;;;;5030186;28;20072;-62
2021/12/23 15:47:29;;;;;;;13.90;9.40;;;;;;;;;;5032259;28;20025;-63
2021/12/23 15:49:56;;;;;;;12.53;8.03;;;;;;;;;;5032610;28;20032;-64
2021/12/23 15:52:21;;;;;;;12.50;8.43;;;;;;;;;;5032182;28;20024;-63